createdAt,value
2022-12-29T00:02:24.235Z,5.15
2022-12-29T00:04:51.653Z,3.22
2022-12-29T00:07:18.539Z,3.58
2022-12-29T00:09:45.129Z,4.50
2022-12-29T00:12:11.565Z,4.43
2022-12-29T00:14:56.524Z,2.70
2022-12-29T00:17:22.828Z,3.03
2022-12-29T00:20:07.653Z,3.55
2022-12-29T00:22:54.839Z,3.72
2022-12-29T00:25:39.941Z,2.40
2022-12-29T00:28:27.965Z,3.30
2022-12-29T00:31:13.159Z,2.67
2022-12-29T00:33:57.931Z,2.05
2022-12-29T00:36:39.163Z,3.38
2022-12-29T00:39:33.853Z,3.20
2022-12-29T00:42:40.059Z,4.63
2022-12-29T00:45:06.831Z,1.88
2022-12-29T00:47:33.557Z,3.08
2022-12-29T00:50:00.616Z,2.55
2022-12-29T00:52:26.913Z,3.42
2022-12-29T00:54:53.181Z,2.95
2022-12-29T00:57:19.513Z,2.75
2022-12-29T00:59:46.349Z,2.05
2022-12-29T01:02:12.751Z,3.63
2022-12-29T01:04:39.256Z,3.88
2022-12-29T01:07:05.680Z,2.53
2022-12-29T01:09:51.302Z,3.90
2022-12-29T01:12:17.898Z,3.25
2022-12-29T01:14:44.766Z,2.65
2022-12-29T01:17:11.049Z,3.08
2022-12-29T01:19:37.462Z,5.57
2022-12-29T01:22:03.832Z,2.92
2022-12-29T01:24:30.179Z,1.80
2022-12-29T01:26:56.527Z,2.28
2022-12-29T01:29:23.400Z,3.38
2022-12-29T01:31:50.644Z,2.60
2022-12-29T01:34:17.893Z,1.92
2022-12-29T01:36:44.714Z,2.30
2022-12-29T01:39:11.038Z,3.28
2022-12-29T01:41:37.370Z,5.35
2022-12-29T01:44:03.700Z,1.52
2022-12-29T01:46:35.714Z,3.15
2022-12-29T01:49:19.408Z,1.65
2022-12-29T01:51:51.602Z,1.80
2022-12-29T01:54:27.006Z,2.00
2022-12-29T01:56:57.220Z,2.40
2022-12-29T01:59:27.982Z,2.20
2022-12-29T02:01:55.193Z,2.35
2022-12-29T02:04:24.570Z,1.77
2022-12-29T02:09:20.481Z,1.30
2022-12-29T02:11:47.542Z,2.17
2022-12-29T02:14:14.901Z,1.10
2022-12-29T02:17:02.338Z,1.17
2022-12-29T02:19:43.647Z,3.40
2022-12-29T02:22:19.006Z,1.20
2022-12-29T02:25:04.555Z,4.00
2022-12-29T02:27:40.989Z,2.78
2022-12-29T02:30:29.172Z,2.30
2022-12-29T02:33:13.936Z,1.90
2022-12-29T02:35:57.571Z,1.23
2022-12-29T02:38:48.609Z,2.97
2022-12-29T02:41:25.897Z,1.50
2022-12-29T02:44:05.037Z,2.45
2022-12-29T02:46:52.680Z,1.50
2022-12-29T02:49:34.352Z,2.08
2022-12-29T02:52:36.656Z,2.88
2022-12-29T02:55:03.190Z,1.55
2022-12-29T02:57:34.945Z,1.20
2022-12-29T03:00:41.482Z,2.20
2022-12-29T03:03:36.591Z,2.50
2022-12-29T03:06:45.462Z,2.83
2022-12-29T03:09:40.819Z,3.08
2022-12-29T03:12:51.030Z,2.35
2022-12-29T03:15:52.832Z,1.50
2022-12-29T03:18:37.352Z,2.65
2022-12-29T03:21:12.220Z,1.58
2022-12-29T03:23:42.036Z,1.60
2022-12-29T03:26:11.653Z,1.63
2022-12-29T03:28:44.158Z,2.08
2022-12-29T03:31:13.150Z,2.90
2022-12-29T03:33:42.193Z,3.38
2022-12-29T03:36:14.426Z,2.10
2022-12-29T03:38:58.150Z,1.60
2022-12-29T03:41:29.430Z,2.78
2022-12-29T03:43:55.790Z,1.45
2022-12-29T03:46:22.164Z,3.90
2022-12-29T03:48:48.526Z,2.97
2022-12-29T03:51:14.823Z,2.15
2022-12-29T03:53:41.373Z,2.08
2022-12-29T03:56:07.709Z,1.15
2022-12-29T03:58:34.046Z,3.30
2022-12-29T04:01:00.791Z,2.08
2022-12-29T04:03:27.317Z,1.20
2022-12-29T04:05:53.671Z,2.10
2022-12-29T04:08:19.971Z,5.57
2022-12-29T04:10:46.325Z,2.20
2022-12-29T04:13:12.715Z,1.52
2022-12-29T04:15:39.315Z,2.17
2022-12-29T04:18:05.894Z,1.40
2022-12-29T04:20:50.829Z,2.08
2022-12-29T04:23:17.171Z,1.60
2022-12-29T04:25:48.339Z,1.88
2022-12-29T04:28:15.741Z,1.88
2022-12-29T04:30:44.091Z,1.50
2022-12-29T04:33:10.883Z,1.83
2022-12-29T04:35:37.355Z,2.95
2022-12-29T04:38:04.238Z,2.22
2022-12-29T04:40:30.776Z,3.05
2022-12-29T04:42:57.362Z,3.60
2022-12-29T04:45:23.714Z,2.97
2022-12-29T04:47:52.969Z,3.55
2022-12-29T04:52:45.567Z,1.75
2022-12-29T04:55:12.254Z,3.97
2022-12-29T04:57:38.604Z,1.60
2022-12-29T05:00:06.057Z,1.50
2022-12-29T05:02:32.566Z,3.67
2022-12-29T05:04:59.152Z,1.40
2022-12-29T05:07:25.969Z,2.85
2022-12-29T05:09:52.380Z,2.00
2022-12-29T05:12:18.948Z,1.40
2022-12-29T05:14:45.243Z,2.65
2022-12-29T05:17:11.642Z,2.35
2022-12-29T05:19:39.075Z,4.28
2022-12-29T05:22:05.519Z,2.22
2022-12-29T05:24:31.791Z,2.22
2022-12-29T05:26:58.195Z,1.83
2022-12-29T05:29:24.675Z,2.05
2022-12-29T05:31:51.160Z,1.52
2022-12-29T05:34:17.525Z,1.70
2022-12-29T05:36:46.581Z,2.45
2022-12-29T05:39:12.962Z,1.65
2022-12-29T05:41:39.288Z,3.00
2022-12-29T05:44:05.645Z,2.83
2022-12-29T05:46:32.088Z,2.20
2022-12-29T05:48:58.712Z,1.88
2022-12-29T05:51:25.092Z,1.50
2022-12-29T05:53:51.492Z,1.98
2022-12-29T05:56:17.790Z,3.03
2022-12-29T05:58:44.174Z,1.48
2022-12-29T06:01:10.485Z,2.13
2022-12-29T06:03:37.007Z,2.53
2022-12-29T06:06:03.601Z,3.42
2022-12-29T06:08:30.071Z,1.85
2022-12-29T06:10:56.353Z,4.35
2022-12-29T06:13:22.834Z,1.45
2022-12-29T06:15:50.161Z,1.90
2022-12-29T06:18:20.067Z,1.88
2022-12-29T06:20:46.916Z,2.17
2022-12-29T06:23:14.059Z,2.08
2022-12-29T06:25:40.623Z,2.70
2022-12-29T06:28:07.018Z,1.98
2022-12-29T06:30:33.588Z,3.05
2022-12-29T06:33:00.484Z,1.95
2022-12-29T06:35:26.884Z,2.60
2022-12-29T06:37:53.186Z,1.50
2022-12-29T06:40:22.640Z,2.65
2022-12-29T06:42:50.184Z,1.67
2022-12-29T06:45:16.486Z,2.47
2022-12-29T06:47:43.988Z,1.55
2022-12-29T06:50:10.319Z,2.38
2022-12-29T06:52:36.916Z,2.17
2022-12-29T06:55:03.453Z,3.10
2022-12-29T06:57:29.831Z,3.17
2022-12-29T06:59:58.892Z,1.60
2022-12-29T07:02:26.568Z,2.00
2022-12-29T07:04:53.764Z,3.50
2022-12-29T07:07:23.875Z,2.03
2022-12-29T07:09:50.346Z,2.15
2022-12-29T07:12:16.830Z,2.53
2022-12-29T07:14:43.833Z,2.97
2022-12-29T07:17:10.426Z,2.03
2022-12-29T07:19:36.811Z,3.38
2022-12-29T07:22:03.313Z,2.08
2022-12-29T07:24:30.687Z,2.65
2022-12-29T07:26:56.999Z,2.92
2022-12-29T07:29:23.569Z,2.50
2022-12-29T07:31:49.918Z,2.70
2022-12-29T07:34:23.251Z,3.50
2022-12-29T07:36:49.575Z,2.00
2022-12-29T07:39:15.910Z,3.65
2022-12-29T07:41:42.238Z,2.47
2022-12-29T07:44:09.912Z,2.42
2022-12-29T07:46:54.440Z,3.47
2022-12-29T07:49:22.633Z,3.20
2022-12-29T07:51:48.945Z,2.60
2022-12-29T07:54:15.479Z,2.17
2022-12-29T07:56:41.949Z,3.25
2022-12-29T07:59:08.277Z,3.17
2022-12-29T08:01:34.791Z,3.10
2022-12-29T08:04:01.295Z,3.20
2022-12-29T08:06:27.701Z,2.65
2022-12-29T08:08:54.034Z,3.67
2022-12-29T08:11:22.963Z,2.55
2022-12-29T08:13:49.558Z,3.63
2022-12-29T08:16:16.055Z,2.50
2022-12-29T08:18:42.383Z,2.45
2022-12-29T08:21:08.681Z,5.60
2022-12-29T08:23:34.991Z,2.50
2022-12-29T08:26:03.363Z,2.55
2022-12-29T08:28:30.352Z,3.08
2022-12-29T08:31:02.155Z,3.75
2022-12-29T08:33:29.220Z,3.00
2022-12-29T08:36:03.729Z,2.08
2022-12-29T08:38:30.766Z,2.80
2022-12-29T08:40:58.964Z,4.60
2022-12-29T08:43:26.025Z,3.75
2022-12-29T08:45:52.879Z,6.80
2022-12-29T08:48:20.693Z,2.78
2022-12-29T08:50:47.712Z,3.22
2022-12-29T08:53:14.165Z,4.13
2022-12-29T08:55:41.227Z,4.10
2022-12-29T08:58:07.660Z,3.42
2022-12-29T09:00:33.982Z,3.10
2022-12-29T09:03:00.456Z,2.63
2022-12-29T09:05:26.915Z,2.65
2022-12-29T09:07:53.301Z,2.53
2022-12-29T09:10:19.739Z,3.25
2022-12-29T09:12:46.095Z,5.50
2022-12-29T09:15:13.175Z,4.68
2022-12-29T09:17:43.581Z,2.40
2022-12-29T09:20:10.652Z,2.78
2022-12-29T09:22:37.906Z,4.13
2022-12-29T09:25:04.790Z,2.92
2022-12-29T09:27:31.265Z,3.45
2022-12-29T09:29:57.898Z,2.80
2022-12-29T09:32:27.490Z,3.22
2022-12-29T09:34:56.191Z,4.80
2022-12-29T09:37:22.649Z,4.75
2022-12-29T09:39:54.049Z,3.72
2022-12-29T09:42:30.779Z,4.95
2022-12-29T09:45:09.856Z,4.32
2022-12-29T09:47:36.858Z,5.18
2022-12-29T09:50:10.550Z,3.13
2022-12-29T09:52:46.315Z,2.03
2022-12-29T09:55:20.774Z,2.67
2022-12-29T09:58:06.854Z,2.30
2022-12-29T10:00:54.832Z,2.38
2022-12-29T10:03:33.736Z,3.50
2022-12-29T10:06:23.193Z,4.10
2022-12-29T10:09:13.202Z,2.42
2022-12-29T10:12:10.477Z,3.20
2022-12-29T10:15:26.865Z,3.08
2022-12-29T10:18:23.574Z,2.95
2022-12-29T10:20:58.814Z,2.53
2022-12-29T10:23:34.646Z,3.17
2022-12-29T10:26:03.725Z,4.05
2022-12-29T10:28:41.023Z,3.10
2022-12-29T10:31:13.825Z,3.80
2022-12-29T10:33:43.994Z,4.15
2022-12-29T10:36:18.105Z,2.33
2022-12-29T10:38:59.601Z,5.78
2022-12-29T10:41:42.202Z,3.42
2022-12-29T10:44:14.638Z,2.80
2022-12-29T10:46:42.091Z,3.80
2022-12-29T10:49:21.536Z,4.88
2022-12-29T10:51:52.821Z,3.33
2022-12-29T10:54:24.639Z,3.28
2022-12-29T10:56:58.507Z,2.58
2022-12-29T10:59:31.018Z,3.90
2022-12-29T11:02:17.294Z,2.25
2022-12-29T11:04:55.878Z,4.47
2022-12-29T11:07:26.920Z,3.85
2022-12-29T11:09:54.173Z,4.95
2022-12-29T11:12:26.939Z,3.15
2022-12-29T11:15:08.829Z,4.03
2022-12-29T11:17:58.696Z,3.85
2022-12-29T11:20:36.230Z,2.50
2022-12-29T11:23:05.634Z,3.08
2022-12-29T11:25:32.305Z,2.15
2022-12-29T11:28:16.488Z,4.15
2022-12-29T11:30:44.109Z,2.63
2022-12-29T11:33:10.747Z,2.92
2022-12-29T11:35:42.962Z,2.35
2022-12-29T11:38:32.836Z,2.47
2022-12-29T11:40:59.229Z,2.83
2022-12-29T11:43:35.752Z,3.15
2022-12-29T11:46:05.948Z,2.40
2022-12-29T11:48:42.512Z,3.72
2022-12-29T11:51:10.956Z,4.10
2022-12-29T11:53:46.710Z,1.95
2022-12-29T11:56:23.910Z,2.53
2022-12-29T11:58:51.532Z,2.85
2022-12-29T12:01:26.756Z,3.03
2022-12-29T12:04:08.937Z,2.25
2022-12-29T12:06:44.146Z,3.30
2022-12-29T12:09:28.585Z,2.30
2022-12-29T12:11:56.308Z,3.53
2022-12-29T12:14:28.643Z,2.50
2022-12-29T12:17:00.971Z,2.80
2022-12-29T12:19:38.860Z,2.40
2022-12-29T12:22:14.505Z,2.47
2022-12-29T12:27:21.382Z,3.78
2022-12-29T12:29:57.475Z,1.77
2022-12-29T12:32:48.983Z,2.50
2022-12-29T12:35:48.920Z,2.15
2022-12-29T12:38:48.123Z,1.63
2022-12-29T12:41:23.105Z,2.95
2022-12-29T12:44:02.541Z,1.48
2022-12-29T12:46:47.705Z,1.63
2022-12-29T12:49:41.499Z,1.10
2022-12-29T12:52:41.287Z,2.70
2022-12-29T12:55:17.459Z,1.40
2022-12-29T12:57:56.567Z,2.65
2022-12-29T13:00:24.179Z,1.27
2022-12-29T13:03:16.183Z,2.50
2022-12-29T13:06:07.897Z,2.03
2022-12-29T13:09:22.009Z,2.45
2022-12-29T13:12:06.191Z,2.47
2022-12-29T13:14:55.909Z,3.63
2022-12-29T13:17:33.483Z,2.72
2022-12-29T13:20:22.057Z,1.80
2022-12-29T13:23:06.139Z,3.88
2022-12-29T13:25:46.548Z,3.22
2022-12-29T13:28:32.616Z,1.55
2022-12-29T13:31:09.183Z,2.78
2022-12-29T13:33:56.480Z,4.53
2022-12-29T13:36:31.326Z,2.17
2022-12-29T13:39:00.441Z,1.77
2022-12-29T13:41:42.264Z,2.15
2022-12-29T13:44:17.076Z,2.13
2022-12-29T13:46:47.668Z,2.20
2022-12-29T13:49:19.134Z,3.72
2022-12-29T13:52:26.751Z,1.20
2022-12-29T13:54:59.027Z,1.75
2022-12-29T13:57:35.975Z,1.75
2022-12-29T14:00:18.803Z,1.67
2022-12-29T14:02:48.005Z,1.58
2022-12-29T14:05:20.709Z,2.45
2022-12-29T14:07:48.410Z,1.58
2022-12-29T14:11:01.840Z,1.92
2022-12-29T14:13:28.201Z,1.92
2022-12-29T14:16:01.596Z,1.90
2022-12-29T14:18:32.860Z,2.10
2022-12-29T14:21:30.523Z,2.13
2022-12-29T14:24:38.737Z,3.20
2022-12-29T14:27:11.320Z,2.47
2022-12-29T14:29:40.703Z,2.60
2022-12-29T14:32:23.223Z,2.38
2022-12-29T14:34:57.526Z,1.42
2022-12-29T14:37:36.523Z,1.67
2022-12-29T14:40:14.976Z,2.50
2022-12-29T14:42:42.753Z,1.65
2022-12-29T14:45:27.505Z,1.88
2022-12-29T14:47:57.802Z,1.73
2022-12-29T14:50:29.438Z,2.72
2022-12-29T14:53:04.033Z,3.10
2022-12-29T14:55:57.892Z,1.40
2022-12-29T14:58:39.546Z,3.17
2022-12-29T15:01:19.321Z,1.98
2022-12-29T15:03:49.213Z,2.00
2022-12-29T15:06:20.236Z,2.50
2022-12-29T15:09:07.151Z,2.00
2022-12-29T15:11:37.260Z,4.13
2022-12-29T15:14:04.019Z,3.63
2022-12-29T15:16:39.278Z,1.42
2022-12-29T15:19:22.310Z,3.47
2022-12-29T15:21:49.325Z,1.08
2022-12-29T15:24:16.036Z,1.40
2022-12-29T15:29:42.801Z,1.15
2022-12-29T15:32:22.944Z,2.50
2022-12-29T15:34:56.547Z,2.05
2022-12-29T15:37:27.308Z,1.95
2022-12-29T15:39:55.323Z,1.60
2022-12-29T15:42:56.563Z,2.25
2022-12-29T15:45:35.034Z,1.20
2022-12-29T15:48:02.008Z,1.90
2022-12-29T15:50:31.500Z,3.08
2022-12-29T15:52:58.705Z,1.90
2022-12-29T15:55:34.036Z,2.35
2022-12-29T15:58:04.063Z,1.98
2022-12-29T16:00:33.206Z,3.67
2022-12-29T16:03:02.668Z,2.47
2022-12-29T16:05:34.819Z,2.40
2022-12-29T16:08:03.393Z,4.10
2022-12-29T16:10:42.918Z,2.13
2022-12-29T16:13:35.532Z,3.25
2022-12-29T16:16:13.645Z,4.28
2022-12-29T16:18:40.500Z,3.25
2022-12-29T16:21:19.605Z,1.77
2022-12-29T16:23:50.956Z,2.28
2022-12-29T16:26:19.387Z,3.58
2022-12-29T16:28:49.367Z,2.10
2022-12-29T16:31:23.139Z,3.92
2022-12-29T16:33:52.135Z,4.00
2022-12-29T16:36:30.687Z,1.83
2022-12-29T16:39:24.168Z,2.92
2022-12-29T16:41:51.414Z,2.00
2022-12-29T16:44:20.410Z,3.40
2022-12-29T16:47:11.012Z,4.38
2022-12-29T16:49:40.376Z,2.70
2022-12-29T16:54:54.237Z,3.25
2022-12-29T16:57:28.416Z,3.95
2022-12-29T17:00:00.523Z,3.35
2022-12-29T17:02:30.308Z,4.30
2022-12-29T17:04:56.837Z,2.90
2022-12-29T17:07:28.316Z,1.60
2022-12-29T17:09:55.023Z,2.90
2022-12-29T17:12:26.756Z,3.33
2022-12-29T17:14:56.204Z,3.90
2022-12-29T17:17:37.479Z,4.50
2022-12-29T17:20:11.264Z,3.40
2022-12-29T17:22:37.626Z,2.90
2022-12-29T17:25:04.272Z,4.40
2022-12-29T17:27:53.987Z,2.35
2022-12-29T17:30:24.262Z,4.18
2022-12-29T17:32:59.718Z,3.58
2022-12-29T17:35:26.308Z,5.97
2022-12-29T17:37:53.008Z,5.80
2022-12-29T17:40:22.695Z,4.00
2022-12-29T17:42:52.715Z,3.05
2022-12-29T17:45:23.762Z,4.20
2022-12-29T17:47:50.261Z,4.63
2022-12-29T17:50:19.835Z,2.92
2022-12-29T17:52:55.307Z,3.47
2022-12-29T17:55:31.223Z,2.53
2022-12-29T17:58:04.750Z,4.95
2022-12-29T18:00:31.390Z,3.58
2022-12-29T18:02:59.035Z,3.60
2022-12-29T18:05:30.399Z,3.22
2022-12-29T18:07:59.124Z,3.25
2022-12-29T18:10:28.507Z,4.53
2022-12-29T18:12:58.306Z,3.47
2022-12-29T18:15:30.133Z,6.65
2022-12-29T18:18:02.240Z,3.80
2022-12-29T18:20:30.804Z,4.47
2022-12-29T18:22:58.972Z,4.10
2022-12-29T18:25:36.476Z,5.05
2022-12-29T18:28:02.849Z,5.82
2022-12-29T18:30:29.149Z,3.92
2022-12-29T18:32:55.450Z,5.30
2022-12-29T18:35:39.419Z,5.13
2022-12-29T18:38:06.740Z,4.88
2022-12-29T18:40:37.028Z,5.38
2022-12-29T18:43:03.757Z,6.53
2022-12-29T18:45:35.223Z,4.82
2022-12-29T18:48:01.601Z,5.07
2022-12-29T18:50:28.389Z,5.63
2022-12-29T18:53:00.095Z,5.13
2022-12-29T18:55:30.281Z,3.65
2022-12-29T18:57:56.848Z,5.95
2022-12-29T19:00:24.191Z,6.22
2022-12-29T19:02:54.428Z,4.00
2022-12-29T19:05:28.267Z,5.35
2022-12-29T19:07:54.989Z,5.47
2022-12-29T19:10:23.800Z,6.40
2022-12-29T19:12:51.525Z,6.60
2022-12-29T19:15:44.637Z,3.30
2022-12-29T19:18:42.965Z,5.72
2022-12-29T19:21:03.733Z,6.72
2022-12-29T19:23:31.106Z,6.38
2022-12-29T19:25:57.509Z,5.45
2022-12-29T19:28:26.804Z,5.80
2022-12-29T19:33:23.849Z,6.38
2022-12-29T19:35:57.975Z,7.18
2022-12-29T19:38:33.688Z,4.70
2022-12-29T19:41:00.049Z,5.07
2022-12-29T19:43:27.707Z,6.55
2022-12-29T19:46:06.131Z,3.88
2022-12-29T19:48:40.011Z,5.68
2022-12-29T19:51:16.940Z,6.22
2022-12-29T19:53:51.635Z,4.22
2022-12-29T19:56:24.865Z,5.68
2022-12-29T19:58:56.988Z,5.40
2022-12-29T20:01:26.207Z,5.88
2022-12-29T20:04:19.429Z,5.47
2022-12-29T20:06:55.937Z,4.05
2022-12-29T20:09:22.447Z,5.07
2022-12-29T20:11:54.800Z,4.57
2022-12-29T20:14:25.361Z,7.35
2022-12-29T20:17:10.338Z,6.75
2022-12-29T20:20:10.409Z,6.45
2022-12-29T20:22:39.920Z,5.00
2022-12-29T20:25:43.820Z,5.45
2022-12-29T20:28:04.333Z,7.57
2022-12-29T20:30:32.738Z,5.22
2022-12-29T20:33:02.212Z,6.35
2022-12-29T20:35:32.516Z,8.57
2022-12-29T20:37:58.824Z,9.32
2022-12-29T20:40:25.538Z,7.28
2022-12-29T20:42:54.218Z,5.75
2022-12-29T20:45:20.621Z,6.30
2022-12-29T20:47:47.004Z,7.25
2022-12-29T20:50:13.302Z,5.20
2022-12-29T20:52:39.661Z,6.20
2022-12-29T20:55:06.307Z,6.60
2022-12-29T20:57:49.950Z,5.97
2022-12-29T21:00:22.562Z,4.68
2022-12-29T21:02:49.897Z,5.30
2022-12-29T21:05:24.987Z,4.70
2022-12-29T21:07:52.892Z,6.18
2022-12-29T21:10:19.442Z,7.03
2022-12-29T21:12:47.887Z,3.85
2022-12-29T21:15:15.485Z,4.55
2022-12-29T21:17:44.131Z,7.90
2022-12-29T21:20:19.373Z,3.88
2022-12-29T21:22:48.740Z,5.20
2022-12-29T21:25:15.154Z,6.95
2022-12-29T21:27:44.525Z,4.55
2022-12-29T21:30:11.515Z,4.13
2022-12-29T21:32:37.960Z,6.97
2022-12-29T21:35:04.642Z,5.72
2022-12-29T21:37:30.935Z,6.35
2022-12-29T21:39:57.383Z,4.40
2022-12-29T21:42:23.795Z,5.05
2022-12-29T21:45:08.943Z,4.13
2022-12-29T21:47:55.530Z,4.18
2022-12-29T21:50:22.046Z,2.85
2022-12-29T21:52:48.376Z,4.55
2022-12-29T21:55:14.814Z,5.80
2022-12-29T21:57:59.961Z,6.63
2022-12-29T22:00:45.137Z,7.65
2022-12-29T22:03:30.583Z,6.90
2022-12-29T22:06:15.395Z,4.53
2022-12-29T22:09:00.429Z,5.25
2022-12-29T22:11:45.481Z,5.88
2022-12-29T22:14:11.762Z,5.13
2022-12-29T22:16:38.073Z,9.15
2022-12-29T22:19:05.070Z,8.90
2022-12-29T22:21:31.508Z,3.80
2022-12-29T22:23:57.826Z,6.03
2022-12-29T22:26:24.123Z,6.68
2022-12-29T22:28:52.141Z,5.85
2022-12-29T22:31:30.103Z,3.83
2022-12-29T22:33:57.903Z,4.90
2022-12-29T22:36:24.920Z,6.45
2022-12-29T22:38:51.549Z,4.22
2022-12-29T22:41:20.431Z,3.42
2022-12-29T22:43:46.787Z,4.68
2022-12-29T22:46:13.918Z,5.60
2022-12-29T22:48:40.742Z,6.05
2022-12-29T22:51:07.225Z,5.22
2022-12-29T22:53:33.782Z,4.78
2022-12-29T22:56:12.597Z,5.43
2022-12-29T22:58:43.241Z,6.47
2022-12-29T23:01:11.404Z,7.35
2022-12-29T23:03:38.631Z,3.88
2022-12-29T23:06:06.808Z,5.22
2022-12-29T23:08:36.268Z,5.60
2022-12-29T23:11:03.739Z,6.90
2022-12-29T23:13:30.202Z,4.43
2022-12-29T23:15:56.608Z,3.88
2022-12-29T23:18:23.832Z,2.88
2022-12-29T23:20:50.214Z,3.17
2022-12-29T23:23:56.376Z,5.90
2022-12-29T23:26:24.599Z,6.63
2022-12-29T23:28:56.202Z,6.70
2022-12-29T23:31:26.562Z,5.78
2022-12-29T23:33:55.264Z,4.05
2022-12-29T23:36:22.395Z,4.03
2022-12-29T23:38:49.096Z,3.10
2022-12-29T23:41:15.381Z,5.88
2022-12-29T23:43:41.717Z,3.08
2022-12-29T23:46:29.208Z,4.18
2022-12-29T23:48:56.050Z,4.18
2022-12-29T23:51:22.469Z,4.72
2022-12-29T23:53:49.009Z,3.15
2022-12-29T23:56:21.192Z,3.58
2022-12-29T23:58:48.719Z,3.03
